createdAt,value
2022-08-12T00:01:26.961Z,4.85
2022-08-12T00:04:06.525Z,4.22
2022-08-12T00:06:28.788Z,4.53
2022-08-12T00:08:51.488Z,4.40
2022-08-12T00:11:13.261Z,4.72
2022-08-12T00:13:36.655Z,4.80
2022-08-12T00:15:59.470Z,4.20
2022-08-12T00:18:20.765Z,4.30
2022-08-12T00:20:41.727Z,4.65
2022-08-12T00:23:04.225Z,4.57
2022-08-12T00:26:01.237Z,4.53
2022-08-12T00:28:06.485Z,4.70
2022-08-12T00:30:30.167Z,4.78
2022-08-12T00:32:52.864Z,4.07
2022-08-12T00:35:18.000Z,4.32
2022-08-12T00:37:40.163Z,4.20
2022-08-12T00:40:11.055Z,3.95
2022-08-12T00:42:30.550Z,5.03
2022-08-12T00:45:16.760Z,4.20
2022-08-12T00:47:32.098Z,4.47
2022-08-12T00:49:41.312Z,4.70
2022-08-12T00:52:10.015Z,4.43
2022-08-12T00:54:19.437Z,4.47
2022-08-12T00:56:32.396Z,4.20
2022-08-12T00:58:53.013Z,4.30
2022-08-12T01:01:04.479Z,4.80
2022-08-12T01:03:18.581Z,4.28
2022-08-12T01:05:40.795Z,4.38
2022-08-12T01:08:03.390Z,4.93
2022-08-12T01:10:27.604Z,4.00
2022-08-12T01:12:44.352Z,4.63
2022-08-12T01:14:53.580Z,4.07
2022-08-12T01:17:06.403Z,4.28
2022-08-12T01:19:17.977Z,4.68
2022-08-12T01:22:06.221Z,4.20
2022-08-12T01:24:30.654Z,4.50
2022-08-12T01:26:43.800Z,4.32
2022-08-12T01:28:54.045Z,4.22
2022-08-12T01:31:07.510Z,4.18
2022-08-12T01:33:20.826Z,4.50
2022-08-12T01:35:30.258Z,4.82
2022-08-12T01:37:44.765Z,4.75
2022-08-12T01:40:36.098Z,4.40
2022-08-12T01:42:28.805Z,4.30
2022-08-12T01:44:38.008Z,4.55
2022-08-12T01:46:59.515Z,5.07
2022-08-12T01:49:24.309Z,4.60
2022-08-12T01:52:20.258Z,4.40
2022-08-12T01:54:15.539Z,4.30
2022-08-12T01:56:31.644Z,4.68
2022-08-12T01:58:58.805Z,4.50
2022-08-12T02:01:14.624Z,3.90
2022-08-12T02:03:54.798Z,4.82
2022-08-12T02:06:29.068Z,4.35
2022-08-12T02:08:57.828Z,4.88
2022-08-12T02:11:23.035Z,4.88
2022-08-12T02:13:50.308Z,4.78
2022-08-12T02:16:04.380Z,4.25
2022-08-12T02:18:26.584Z,4.25
2022-08-12T02:20:51.666Z,4.75
2022-08-12T02:23:02.249Z,4.20
2022-08-12T02:25:15.866Z,4.82
2022-08-12T02:27:27.803Z,4.35
2022-08-12T02:29:39.137Z,4.35
2022-08-12T02:31:48.722Z,4.38
2022-08-12T02:33:58.839Z,4.95
2022-08-12T02:36:08.595Z,5.10
2022-08-12T02:38:19.380Z,4.95
2022-08-12T02:40:31.148Z,5.10
2022-08-12T02:42:42.151Z,5.22
2022-08-12T02:44:58.007Z,4.95
2022-08-12T02:47:55.629Z,4.60
2022-08-12T02:49:41.607Z,4.47
2022-08-12T02:51:49.961Z,4.57
2022-08-12T02:54:04.698Z,5.20
2022-08-12T02:56:14.086Z,5.60
2022-08-12T02:58:33.022Z,4.97
2022-08-12T03:00:46.687Z,4.70
2022-08-12T03:03:00.081Z,5.20
2022-08-12T03:05:09.861Z,4.15
2022-08-12T03:07:25.977Z,5.18
2022-08-12T03:10:04.368Z,4.93
2022-08-12T03:12:20.135Z,5.25
2022-08-12T03:14:31.650Z,4.90
2022-08-12T03:16:42.835Z,4.90
2022-08-12T03:18:53.224Z,4.63
2022-08-12T03:21:05.462Z,4.95
2022-08-12T03:23:29.139Z,5.25
2022-08-12T03:25:42.515Z,5.40
2022-08-12T03:27:58.751Z,4.65
2022-08-12T03:30:08.465Z,4.80
2022-08-12T03:32:36.177Z,4.47
2022-08-12T03:34:49.495Z,4.90
2022-08-12T03:36:59.997Z,5.43
2022-08-12T03:39:35.985Z,4.85
2022-08-12T03:41:50.453Z,4.53
2022-08-12T03:44:16.787Z,4.85
2022-08-12T03:46:43.367Z,5.28
2022-08-12T03:49:06.922Z,4.78
2022-08-12T03:51:27.643Z,4.50
2022-08-12T03:53:48.827Z,4.57
2022-08-12T03:56:09.867Z,5.13
2022-08-12T03:58:31.721Z,5.00
2022-08-12T04:00:41.147Z,5.10
2022-08-12T04:02:55.849Z,4.80
2022-08-12T04:05:08.672Z,4.78
2022-08-12T04:07:20.738Z,5.50
2022-08-12T04:09:29.796Z,5.00
2022-08-12T04:11:54.612Z,5.35
2022-08-12T04:14:09.794Z,5.13
2022-08-12T04:16:19.505Z,5.50
2022-08-12T04:18:32.834Z,5.35
2022-08-12T04:20:43.701Z,5.28
2022-08-12T04:22:53.727Z,5.40
2022-08-12T04:25:03.247Z,4.80
2022-08-12T04:27:13.216Z,5.13
2022-08-12T04:30:17.009Z,5.47
2022-08-12T04:31:56.213Z,5.50
2022-08-12T04:34:07.926Z,5.32
2022-08-12T04:36:18.846Z,4.75
2022-08-12T04:38:29.052Z,4.95
2022-08-12T04:40:41.047Z,5.50
2022-08-12T04:42:49.271Z,4.97
2022-08-12T04:44:59.708Z,4.75
2022-08-12T04:47:08.313Z,5.10
2022-08-12T04:49:20.920Z,5.40
2022-08-12T04:51:33.055Z,4.95
2022-08-12T04:53:42.994Z,5.28
2022-08-12T04:55:52.519Z,5.18
2022-08-12T04:58:00.736Z,4.40
2022-08-12T05:00:13.124Z,5.15
2022-08-12T05:02:23.220Z,4.22
2022-08-12T05:04:35.090Z,4.50
2022-08-12T05:06:45.989Z,4.27
2022-08-12T05:08:54.450Z,4.27
2022-08-12T05:11:06.180Z,4.80
2022-08-12T05:13:18.962Z,4.50
2022-08-12T05:15:29.548Z,4.77
2022-08-12T05:17:38.072Z,5.07
2022-08-12T05:19:46.536Z,5.30
2022-08-12T05:21:57.647Z,5.03
2022-08-12T05:24:06.273Z,4.93
2022-08-12T05:26:15.407Z,5.17
2022-08-12T05:28:24.325Z,4.90
2022-08-12T05:30:33.656Z,4.70
2022-08-12T05:32:42.034Z,4.30
2022-08-12T05:34:50.699Z,4.80
2022-08-12T05:37:02.570Z,3.70
2022-08-12T05:39:08.273Z,4.47
2022-08-12T05:41:21.913Z,4.77
2022-08-12T05:43:30.988Z,4.10
2022-08-12T05:45:42.961Z,4.73
2022-08-12T05:47:54.367Z,4.53
2022-08-12T05:50:03.741Z,4.50
2022-08-12T05:52:14.595Z,4.60
2022-08-12T05:54:47.410Z,4.67
2022-08-12T05:56:54.862Z,4.30
2022-08-12T05:59:04.324Z,5.63
2022-08-12T06:02:09.913Z,6.03
2022-08-12T06:03:42.553Z,8.53
2022-08-12T06:05:55.107Z,10.70
2022-08-12T06:08:15.618Z,12.40
2022-08-12T06:10:32.198Z,15.97
2022-08-12T06:12:43.323Z,14.57
2022-08-12T06:14:59.309Z,15.13
2022-08-12T06:17:12.020Z,13.57
2022-08-12T06:19:25.348Z,14.03
2022-08-12T06:21:55.145Z,13.20
2022-08-12T06:24:09.062Z,14.03
2022-08-12T06:26:20.471Z,11.63
2022-08-12T06:28:30.748Z,11.20
2022-08-12T06:30:40.785Z,11.97
2022-08-12T06:33:04.258Z,11.33
2022-08-12T06:35:26.657Z,10.70
2022-08-12T06:37:57.130Z,5.13
2022-08-12T06:40:10.216Z,6.50
2022-08-12T06:42:32.803Z,4.43
2022-08-12T06:44:44.128Z,4.87
2022-08-12T06:46:56.777Z,4.27
2022-08-12T06:49:07.116Z,5.37
2022-08-12T06:51:15.455Z,4.10
2022-08-12T06:53:24.387Z,3.47
2022-08-12T06:55:36.403Z,3.80
2022-08-12T06:58:07.474Z,3.60
2022-08-12T07:00:22.684Z,4.00
2022-08-12T07:02:41.214Z,3.43
2022-08-12T07:04:50.059Z,3.30
2022-08-12T07:06:58.412Z,3.47
2022-08-12T07:09:07.510Z,4.37
2022-08-12T07:11:20.059Z,3.80
2022-08-12T07:13:36.090Z,3.77
2022-08-12T07:16:04.285Z,4.17
2022-08-12T07:18:16.286Z,3.40
2022-08-12T07:20:51.179Z,3.87
2022-08-12T07:22:53.791Z,3.30
2022-08-12T07:25:14.390Z,3.20
2022-08-12T07:27:25.880Z,2.90
2022-08-12T07:29:57.830Z,3.57
2022-08-12T07:32:05.822Z,3.40
2022-08-12T07:34:21.813Z,3.07
2022-08-12T07:36:30.434Z,3.13
2022-08-12T07:38:42.552Z,3.53
2022-08-12T07:40:50.566Z,3.57
2022-08-12T07:43:01.394Z,3.27
2022-08-12T07:45:11.989Z,3.63
2022-08-12T07:47:20.210Z,3.23
2022-08-12T07:49:28.880Z,3.27
2022-08-12T07:51:37.615Z,2.83
2022-08-12T07:53:59.966Z,3.70
2022-08-12T07:56:12.233Z,3.20
2022-08-12T07:58:26.470Z,3.10
2022-08-12T08:00:37.675Z,3.33
2022-08-12T08:02:45.748Z,3.87
2022-08-12T08:05:00.784Z,3.27
2022-08-12T08:07:09.661Z,3.30
2022-08-12T08:09:21.371Z,4.20
2022-08-12T08:11:42.433Z,3.73
2022-08-12T08:13:53.580Z,3.30
2022-08-12T08:16:04.250Z,3.87
2022-08-12T08:18:26.853Z,3.50
2022-08-12T08:20:41.243Z,3.37
2022-08-12T08:22:49.734Z,3.50
2022-08-12T08:24:59.925Z,3.63
2022-08-12T08:27:09.321Z,3.70
2022-08-12T08:29:21.737Z,3.83
2022-08-12T08:31:30.101Z,3.77
2022-08-12T08:34:04.780Z,4.20
2022-08-12T08:36:16.374Z,3.60
2022-08-12T08:38:35.414Z,3.30
2022-08-12T08:41:04.543Z,3.50
2022-08-12T08:43:13.057Z,3.37
2022-08-12T08:45:23.992Z,3.40
2022-08-12T08:47:32.234Z,3.63
2022-08-12T08:49:42.253Z,3.57
2022-08-12T08:51:50.260Z,3.50
2022-08-12T08:53:58.340Z,3.13
2022-08-12T08:56:11.779Z,3.33
2022-08-12T08:58:21.626Z,3.93
2022-08-12T09:00:32.632Z,4.25
2022-08-12T09:02:41.027Z,4.00
2022-08-12T09:07:51.121Z,3.47
2022-08-12T09:10:02.999Z,4.07
2022-08-12T09:14:54.462Z,3.57
2022-08-12T09:17:05.648Z,3.37
2022-08-12T09:21:54.326Z,3.27
2022-08-12T09:24:06.022Z,3.30
2022-08-12T09:26:19.113Z,3.63
2022-08-12T09:28:31.202Z,3.83
2022-08-12T09:30:44.442Z,3.10
2022-08-12T09:33:15.290Z,3.60
2022-08-12T09:35:28.331Z,3.40
2022-08-12T09:37:55.172Z,3.63
2022-08-12T09:40:56.081Z,3.40
2022-08-12T09:42:54.363Z,3.70
2022-08-12T09:46:06.870Z,3.33
2022-08-12T09:47:57.055Z,3.77
2022-08-12T09:50:20.634Z,3.10
2022-08-12T09:52:31.689Z,3.20
2022-08-12T09:54:42.921Z,3.50
2022-08-12T09:56:59.778Z,3.40
2022-08-12T09:59:11.604Z,3.17
2022-08-12T10:01:23.329Z,3.30
2022-08-12T10:03:36.983Z,2.90
2022-08-12T10:06:27.181Z,3.53
2022-08-12T10:08:37.787Z,3.00
2022-08-12T10:10:59.700Z,3.20
2022-08-12T10:13:34.561Z,3.23
2022-08-12T10:16:01.945Z,3.10
2022-08-12T10:18:13.567Z,3.60
2022-08-12T10:20:24.576Z,3.57
2022-08-12T10:22:48.966Z,3.67
2022-08-12T10:25:17.852Z,3.13
2022-08-12T10:27:39.532Z,3.20
2022-08-12T10:30:42.009Z,3.30
2022-08-12T10:33:02.439Z,2.97
2022-08-12T10:35:02.220Z,3.47
2022-08-12T10:38:10.632Z,3.07
2022-08-12T10:40:03.038Z,3.13
2022-08-12T10:42:29.523Z,3.50
2022-08-12T10:44:37.983Z,3.53
2022-08-12T10:46:49.377Z,3.00
2022-08-12T10:49:05.436Z,3.33
2022-08-12T10:52:04.229Z,3.40
2022-08-12T10:54:00.912Z,2.70
2022-08-12T10:56:11.645Z,3.00
2022-08-12T10:58:28.077Z,3.23
2022-08-12T11:00:45.166Z,3.27
2022-08-12T11:04:28.357Z,2.80
2022-08-12T11:07:07.995Z,2.60
2022-08-12T11:08:38.512Z,3.00
2022-08-12T11:10:35.609Z,2.97
2022-08-12T11:12:58.656Z,2.80
2022-08-12T11:15:19.096Z,2.60
2022-08-12T11:17:43.073Z,3.03
2022-08-12T11:19:57.204Z,2.83
2022-08-12T11:22:05.470Z,2.90
2022-08-12T11:24:30.675Z,2.70
2022-08-12T11:26:42.931Z,2.70
2022-08-12T11:29:05.678Z,2.87
2022-08-12T11:31:19.078Z,2.90
2022-08-12T11:34:05.276Z,2.60
2022-08-12T11:35:59.597Z,2.90
2022-08-12T11:38:10.050Z,3.03
2022-08-12T11:42:48.867Z,3.40
2022-08-12T11:44:57.619Z,3.17
2022-08-12T11:47:09.628Z,3.17
2022-08-12T11:49:20.420Z,3.37
2022-08-12T11:51:39.988Z,2.60
2022-08-12T11:54:01.151Z,2.97
2022-08-12T11:56:11.452Z,3.10
2022-08-12T11:59:16.184Z,2.90
2022-08-12T12:03:24.705Z,3.20
2022-08-12T12:05:51.579Z,3.37
2022-08-12T12:08:37.393Z,3.10
2022-08-12T12:10:28.946Z,3.47
2022-08-12T12:12:37.241Z,3.43
2022-08-12T12:14:54.119Z,3.27
2022-08-12T12:17:02.397Z,3.30
2022-08-12T12:19:10.641Z,3.17
2022-08-12T12:21:18.944Z,2.93
2022-08-12T12:23:47.369Z,3.50
2022-08-12T12:25:59.485Z,3.50
2022-08-12T12:28:19.980Z,3.53
2022-08-12T12:30:54.836Z,3.23
2022-08-12T12:33:04.681Z,3.30
2022-08-12T12:36:06.135Z,3.80
2022-08-12T12:38:05.601Z,3.53
2022-08-12T12:40:20.486Z,3.80
2022-08-12T12:42:44.038Z,3.30
2022-08-12T12:45:02.224Z,3.60
2022-08-12T12:47:30.155Z,2.90
2022-08-12T12:49:39.616Z,3.10
2022-08-12T12:52:17.959Z,3.23
2022-08-12T12:54:24.483Z,3.10
2022-08-12T12:56:42.828Z,4.03
2022-08-12T12:58:52.526Z,3.40
2022-08-12T13:01:04.842Z,3.33
2022-08-12T13:03:48.707Z,3.60
2022-08-12T13:06:03.066Z,3.47
2022-08-12T13:08:28.287Z,3.00
2022-08-12T13:10:50.344Z,2.83
2022-08-12T13:12:59.176Z,2.93
2022-08-12T13:15:43.424Z,3.37
2022-08-12T13:18:03.326Z,3.10
2022-08-12T13:20:21.178Z,3.10
2022-08-12T13:22:46.270Z,3.17
2022-08-12T13:24:57.775Z,2.97
2022-08-12T13:27:05.970Z,3.23
2022-08-12T13:29:15.337Z,3.27
2022-08-12T13:31:27.240Z,3.17
2022-08-12T13:34:33.282Z,3.20
2022-08-12T13:36:10.153Z,2.90
2022-08-12T13:38:26.629Z,3.03
2022-08-12T13:40:46.203Z,2.77
2022-08-12T13:42:57.956Z,3.10
2022-08-12T13:45:16.458Z,2.50
2022-08-12T13:47:25.066Z,2.93
2022-08-12T13:49:55.186Z,3.00
2022-08-12T13:52:08.542Z,3.00
2022-08-12T13:54:19.620Z,2.77
2022-08-12T13:56:30.564Z,3.40
2022-08-12T13:58:52.613Z,2.80
2022-08-12T14:01:09.113Z,3.37
2022-08-12T14:03:28.581Z,3.27
2022-08-12T14:06:07.080Z,2.80
2022-08-12T14:08:21.310Z,3.13
2022-08-12T14:10:50.870Z,3.53
2022-08-12T14:12:59.718Z,3.00
2022-08-12T14:15:10.693Z,3.10
2022-08-12T14:17:20.057Z,2.80
2022-08-12T14:19:33.105Z,2.60
2022-08-12T14:22:01.124Z,2.40
2022-08-12T14:24:14.771Z,2.07
2022-08-12T14:26:24.925Z,2.70
2022-08-12T14:28:35.227Z,2.80
2022-08-12T14:31:00.073Z,2.60
2022-08-12T14:33:09.160Z,2.93
2022-08-12T14:35:19.620Z,3.10
2022-08-12T14:37:56.897Z,2.57
2022-08-12T14:40:04.312Z,2.97
2022-08-12T14:42:12.358Z,2.87
2022-08-12T14:44:58.217Z,3.37
2022-08-12T14:46:59.274Z,2.83
2022-08-12T14:50:01.193Z,2.60
2022-08-12T14:52:56.507Z,3.90
2022-08-12T14:56:58.278Z,3.30
2022-08-12T14:59:23.828Z,2.77
2022-08-12T15:01:42.865Z,2.60
2022-08-12T15:03:57.350Z,2.70
2022-08-12T15:06:39.861Z,2.93
2022-08-12T15:08:39.016Z,3.80
2022-08-12T15:10:53.817Z,2.73
2022-08-12T15:13:17.617Z,2.60
2022-08-12T15:15:26.061Z,3.27
2022-08-12T15:17:52.453Z,3.20
2022-08-12T15:20:31.985Z,3.30
2022-08-12T15:22:38.133Z,2.47
2022-08-12T15:24:48.925Z,2.20
2022-08-12T15:26:58.804Z,2.30
2022-08-12T15:29:10.477Z,3.30
2022-08-12T15:31:27.697Z,2.13
2022-08-12T15:33:45.329Z,2.77
2022-08-12T15:35:57.076Z,2.90
2022-08-12T15:38:09.562Z,2.80
2022-08-12T15:40:29.987Z,2.80
2022-08-12T15:42:38.891Z,2.70
2022-08-12T15:44:51.295Z,2.63
2022-08-12T15:47:01.116Z,2.70
2022-08-12T15:49:16.939Z,2.70
2022-08-12T15:51:58.349Z,2.70
2022-08-12T15:54:33.611Z,2.83
2022-08-12T15:56:41.479Z,2.60
2022-08-12T15:58:50.472Z,3.40
2022-08-12T16:01:02.521Z,2.40
2022-08-12T16:03:19.252Z,2.53
2022-08-12T16:06:12.450Z,2.43
2022-08-12T16:08:06.265Z,2.53
2022-08-12T16:10:14.953Z,3.30
2022-08-12T16:12:23.549Z,2.50
2022-08-12T16:14:34.101Z,2.47
2022-08-12T16:16:48.589Z,2.00
2022-08-12T16:19:01.901Z,2.20
2022-08-12T16:21:52.361Z,2.20
2022-08-12T16:23:57.745Z,2.20
2022-08-12T16:26:15.266Z,2.50
2022-08-12T16:28:30.600Z,2.50
2022-08-12T16:30:42.591Z,2.63
2022-08-12T16:33:08.492Z,2.30
2022-08-12T16:35:17.359Z,2.25
2022-08-12T16:37:32.558Z,2.30
2022-08-12T16:39:59.466Z,2.20
2022-08-12T16:42:09.477Z,2.00
2022-08-12T16:44:19.625Z,1.90
2022-08-12T16:46:32.265Z,1.97
2022-08-12T16:48:44.758Z,1.85
2022-08-12T16:50:55.029Z,2.20
2022-08-12T16:53:04.060Z,2.17
2022-08-12T16:55:12.983Z,2.27
2022-08-12T16:57:34.585Z,1.90
2022-08-12T16:59:54.226Z,2.10
2022-08-12T17:02:05.989Z,1.70
2022-08-12T17:04:20.679Z,1.90
2022-08-12T17:06:32.690Z,1.65
2022-08-12T17:08:49.805Z,1.58
2022-08-12T17:11:08.517Z,2.17
2022-08-12T17:13:16.750Z,1.90
2022-08-12T17:15:57.657Z,1.67
2022-08-12T17:18:38.788Z,2.00
2022-08-12T17:20:34.109Z,1.70
2022-08-12T17:22:47.376Z,2.00
2022-08-12T17:24:57.565Z,1.53
2022-08-12T17:27:16.636Z,1.55
2022-08-12T17:30:00.323Z,1.95
2022-08-12T17:32:00.477Z,1.60
2022-08-12T17:34:30.858Z,1.80
2022-08-12T17:36:43.363Z,1.70
2022-08-12T17:38:51.512Z,2.03
2022-08-12T17:40:59.956Z,1.80
2022-08-12T17:43:51.895Z,1.92
2022-08-12T17:45:58.773Z,1.45
2022-08-12T17:48:10.516Z,1.70
2022-08-12T17:50:20.753Z,1.85
2022-08-12T17:52:38.761Z,1.80
2022-08-12T17:54:48.606Z,2.17
2022-08-12T17:57:00.548Z,1.90
2022-08-12T17:59:12.242Z,1.60
2022-08-12T18:01:21.457Z,2.08
2022-08-12T18:04:04.169Z,1.65
2022-08-12T18:06:08.094Z,1.58
2022-08-12T18:08:39.392Z,1.88
2022-08-12T18:11:11.966Z,1.67
2022-08-12T18:13:40.867Z,1.70
2022-08-12T18:16:06.113Z,1.70
2022-08-12T18:18:17.198Z,2.17
2022-08-12T18:20:29.050Z,1.60
2022-08-12T18:22:39.544Z,1.90
2022-08-12T18:25:00.784Z,1.60
2022-08-12T18:27:14.195Z,1.60
2022-08-12T18:29:42.410Z,1.95
2022-08-12T18:31:59.769Z,1.90
2022-08-12T18:34:11.678Z,2.10
2022-08-12T18:36:22.564Z,1.70
2022-08-12T18:38:32.522Z,1.70
2022-08-12T18:40:59.466Z,1.80
2022-08-12T18:43:15.256Z,1.67
2022-08-12T18:45:25.909Z,2.05
2022-08-12T18:47:49.906Z,1.83
2022-08-12T18:49:59.121Z,1.85
2022-08-12T18:52:12.212Z,2.00
2022-08-12T18:54:21.673Z,1.80
2022-08-12T18:56:36.804Z,1.80
2022-08-12T18:58:59.584Z,2.30
2022-08-12T19:02:17.162Z,1.60
2022-08-12T19:03:41.805Z,2.00
2022-08-12T19:05:54.210Z,1.98
2022-08-12T19:08:08.855Z,2.20
2022-08-12T19:10:26.398Z,2.20
2022-08-12T19:12:56.910Z,2.33
2022-08-12T19:15:09.905Z,2.10
2022-08-12T19:17:19.410Z,2.38
2022-08-12T19:19:30.183Z,2.22
2022-08-12T19:21:56.702Z,2.10
2022-08-12T19:24:17.651Z,2.35
2022-08-12T19:26:35.078Z,2.50
2022-08-12T19:28:48.356Z,2.38
2022-08-12T19:31:14.276Z,2.33
2022-08-12T19:33:28.740Z,2.50
2022-08-12T19:36:07.450Z,2.10
2022-08-12T19:38:12.724Z,2.40
2022-08-12T19:40:31.362Z,2.15
2022-08-12T19:42:44.308Z,2.30
2022-08-12T19:45:06.313Z,2.30
2022-08-12T19:47:22.759Z,2.67
2022-08-12T19:49:36.971Z,2.40
2022-08-12T19:51:49.898Z,2.40
2022-08-12T19:53:59.642Z,2.78
2022-08-12T19:56:12.253Z,2.55
2022-08-12T19:58:27.793Z,2.65
2022-08-12T20:00:43.672Z,2.65
2022-08-12T20:03:05.410Z,2.42
2022-08-12T20:06:05.328Z,3.60
2022-08-12T20:07:56.963Z,2.67
2022-08-12T20:10:12.651Z,2.53
2022-08-12T20:12:32.968Z,3.00
2022-08-12T20:17:56.750Z,2.80
2022-08-12T20:20:19.610Z,2.53
2022-08-12T20:22:31.690Z,2.40
2022-08-12T20:24:46.379Z,2.88
2022-08-12T20:26:55.530Z,2.83
2022-08-12T20:29:04.809Z,2.90
2022-08-12T20:31:18.360Z,2.95
2022-08-12T20:33:32.625Z,2.83
2022-08-12T20:36:13.006Z,2.85
2022-08-12T20:38:26.993Z,2.60
2022-08-12T20:40:35.754Z,2.65
2022-08-12T20:42:46.951Z,2.58
2022-08-12T20:45:00.154Z,3.33
2022-08-12T20:47:20.191Z,2.58
2022-08-12T20:49:31.815Z,3.10
2022-08-12T20:51:55.410Z,2.70
2022-08-12T20:54:06.023Z,2.50
2022-08-12T20:56:22.300Z,2.85
2022-08-12T20:58:39.502Z,2.88
2022-08-12T21:00:48.904Z,2.75
2022-08-12T21:03:23.336Z,2.25
2022-08-12T21:06:12.804Z,2.70
2022-08-12T21:08:26.842Z,2.78
2022-08-12T21:11:08.226Z,2.90
2022-08-12T21:13:59.427Z,2.75
2022-08-12T21:19:22.488Z,2.58
2022-08-12T21:21:50.363Z,2.88
2022-08-12T21:24:01.286Z,2.80
2022-08-12T21:26:16.561Z,2.83
2022-08-12T21:28:27.559Z,2.90
2022-08-12T21:31:11.170Z,2.70
2022-08-12T21:33:14.582Z,2.60
2022-08-12T21:35:24.672Z,3.20
2022-08-12T21:37:42.722Z,2.85
2022-08-12T21:40:13.646Z,2.95
2022-08-12T21:42:27.950Z,2.20
2022-08-12T21:45:46.918Z,2.67
2022-08-12T21:47:19.695Z,2.78
2022-08-12T21:49:54.618Z,2.63
2022-08-12T21:52:01.422Z,2.50
2022-08-12T21:54:21.521Z,2.60
2022-08-12T21:56:34.413Z,2.70
2022-08-12T21:58:44.434Z,2.67
2022-08-12T22:00:52.799Z,2.45
2022-08-12T22:03:15.611Z,2.60
2022-08-12T22:05:37.931Z,2.90
2022-08-12T22:07:55.545Z,2.70
2022-08-12T22:10:12.518Z,2.60
2022-08-12T22:12:34.338Z,2.65
2022-08-12T22:14:48.363Z,2.65
2022-08-12T22:16:57.969Z,3.00
2022-08-12T22:19:06.787Z,2.60
2022-08-12T22:21:18.488Z,2.90
2022-08-12T22:23:28.277Z,2.95
2022-08-12T22:25:39.955Z,2.90
2022-08-12T22:28:17.016Z,2.72
2022-08-12T22:30:45.173Z,3.15
2022-08-12T22:32:55.036Z,2.80
2022-08-12T22:35:22.151Z,2.70
2022-08-12T22:37:32.462Z,2.55
2022-08-12T22:39:43.821Z,2.97
2022-08-12T22:42:07.944Z,2.45
2022-08-12T22:44:28.406Z,2.83
2022-08-12T22:46:52.781Z,2.85
2022-08-12T22:49:02.248Z,2.53
2022-08-12T22:51:11.948Z,3.15
2022-08-12T22:53:23.248Z,3.00
2022-08-12T22:55:58.957Z,3.10
2022-08-12T22:58:04.825Z,3.45
2022-08-12T23:00:24.313Z,2.83
2022-08-12T23:02:37.247Z,3.15
2022-08-12T23:04:46.879Z,2.90
2022-08-12T23:06:56.351Z,2.80
2022-08-12T23:09:04.812Z,2.72
2022-08-12T23:11:13.740Z,2.60
2022-08-12T23:13:43.788Z,2.75
2022-08-12T23:15:59.370Z,2.80
2022-08-12T23:18:16.730Z,2.90
2022-08-12T23:20:27.930Z,2.55
2022-08-12T23:22:37.353Z,2.65
2022-08-12T23:24:53.726Z,2.97
2022-08-12T23:27:18.378Z,3.00
2022-08-12T23:29:43.855Z,2.80
2022-08-12T23:32:02.885Z,3.45
2022-08-12T23:34:12.214Z,2.90
2022-08-12T23:36:29.767Z,2.60
2022-08-12T23:38:47.674Z,2.80
2022-08-12T23:41:08.938Z,2.90
2022-08-12T23:43:19.047Z,2.55
2022-08-12T23:45:34.033Z,2.60
2022-08-12T23:47:44.187Z,2.85
2022-08-12T23:49:59.815Z,2.97
2022-08-12T23:52:11.991Z,3.05
2022-08-12T23:54:38.694Z,2.90
2022-08-12T23:56:47.901Z,3.42
2022-08-12T23:59:00.043Z,3.70
